Time;durP1;ratioP1;P1;durP2;ratioP2;P2;SDS_P1;SDS_P2;PMS_P1;PMS_P2;Temp;Humidity;BMP_temperature;BMP_pressure;BME280_temperature;BME280_humidity;BME280_pressure;Samples;Min_cycle;Max_cycle;Signal;HPM_P1;HPM_P2
2021/07/16 00:00:09;;;;;;;13.53;6.13;;;19.80;99.90;;;;;;5055092;28;20508;-69
2021/07/16 00:02:36;;;;;;;12.10;5.70;;;19.70;99.90;;;;;;5051792;28;21116;-68
2021/07/16 00:05:04;;;;;;;9.93;5.33;;;19.70;99.90;;;;;;5047459;28;20490;-70
2021/07/16 00:07:32;;;;;;;7.90;5.80;;;19.70;99.90;;;;;;5053726;28;20506;-70
2021/07/16 00:09:59;;;;;;;6.97;5.20;;;19.60;99.90;;;;;;5055289;28;20514;-71
2021/07/16 00:12:28;;;;;;;9.10;4.63;;;19.60;99.90;;;;;;5047082;28;20860;-70
2021/07/16 00:14:54;;;;;;;5.80;3.83;;;19.70;99.90;;;;;;5046847;28;20491;-70
2021/07/16 00:17:21;;;;;;;5.53;4.10;;;19.70;99.90;;;;;;5052370;28;20561;-71
2021/07/16 00:19:48;;;;;;;14.93;6.50;;;19.60;99.90;;;;;;5054542;28;20501;-70
2021/07/16 00:22:15;;;;;;;7.20;4.53;;;19.60;99.90;;;;;;5056466;28;20941;-69
2021/07/16 00:24:44;;;;;;;9.13;4.93;;;19.70;99.90;;;;;;5054898;28;20458;-69
2021/07/16 00:27:11;;;;;;;7.23;4.87;;;19.80;99.90;;;;;;5058780;28;20489;-69
2021/07/16 00:29:38;;;;;;;7.37;5.17;;;19.70;99.90;;;;;;5055338;28;20526;-70
2021/07/16 00:32:05;;;;;;;9.50;5.50;;;19.60;99.90;;;;;;5054445;28;20563;-70
2021/07/16 00:34:32;;;;;;;6.47;4.40;;;19.50;99.90;;;;;;5058410;28;20460;-71
2021/07/16 00:36:59;;;;;;;9.00;5.30;;;19.60;99.90;;;;;;5059541;28;20871;-70
2021/07/16 00:39:27;;;;;;;6.47;3.73;;;19.50;99.90;;;;;;5055213;28;20500;-70
2021/07/16 00:41:55;;;;;;;9.77;6.43;;;19.60;99.90;;;;;;5054630;28;20463;-70
2021/07/16 00:44:22;;;;;;;7.10;4.43;;;19.50;99.90;;;;;;5056067;28;20458;-70
2021/07/16 00:46:49;;;;;;;9.37;4.53;;;19.50;99.90;;;;;;5051976;28;21008;-70
2021/07/16 00:49:16;;;;;;;5.50;4.73;;;19.50;99.90;;;;;;5055022;28;20880;-70
2021/07/16 00:51:43;;;;;;;7.43;4.97;;;19.50;99.90;;;;;;5053991;28;20534;-70
2021/07/16 00:54:11;;;;;;;8.70;6.07;;;19.50;99.90;;;;;;5059626;28;20561;-69
2021/07/16 00:56:38;;;;;;;12.87;4.40;;;19.40;99.90;;;;;;5055488;28;20559;-71
2021/07/16 00:59:07;;;;;;;17.50;5.77;;;19.40;99.90;;;;;;5057273;28;20664;-71
2021/07/16 01:01:34;;;;;;;6.50;3.97;;;19.30;99.90;;;;;;5052804;28;20519;-70
2021/07/16 01:04:00;;;;;;;5.50;3.20;;;19.30;99.90;;;;;;5055671;28;20462;-69
2021/07/16 01:06:28;;;;;;;7.93;3.57;;;19.20;99.90;;;;;;5061133;28;20569;-70
2021/07/16 01:08:55;;;;;;;19.83;6.13;;;19.20;99.90;;;;;;5060652;28;20453;-70
2021/07/16 01:11:22;;;;;;;6.77;4.50;;;19.20;99.90;;;;;;5061994;28;20542;-70
2021/07/16 01:13:50;;;;;;;13.10;5.00;;;19.20;99.90;;;;;;5061517;28;20486;-71
2021/07/16 01:16:18;;;;;;;5.03;3.87;;;19.20;99.90;;;;;;5060135;28;20566;-72
2021/07/16 01:18:45;;;;;;;7.03;4.63;;;19.30;99.90;;;;;;5056886;28;20537;-71
2021/07/16 01:21:13;;;;;;;9.87;4.30;;;19.10;99.90;;;;;;5054285;28;20459;-72
2021/07/16 01:23:42;;;;;;;4.47;3.93;;;19.10;99.90;;;;;;5052520;28;20549;-72
2021/07/16 01:26:10;;;;;;;10.30;4.80;;;19.00;99.90;;;;;;5055348;28;20489;-71
2021/07/16 01:28:37;;;;;;;7.50;4.27;;;18.90;99.90;;;;;;5060225;28;20943;-71
2021/07/16 01:31:06;;;;;;;7.13;4.87;;;19.10;99.90;;;;;;5052312;28;20465;-69
2021/07/16 01:33:33;;;;;;;7.60;4.10;;;19.00;99.90;;;;;;5056344;28;20466;-72
2021/07/16 01:36:00;;;;;;;6.83;4.87;;;19.00;99.90;;;;;;5055021;28;20565;-71
2021/07/16 01:38:28;;;;;;;10.43;3.80;;;18.90;99.90;;;;;;5055802;28;20471;-70
2021/07/16 01:40:56;;;;;;;6.80;4.60;;;19.00;99.90;;;;;;5057701;28;20479;-71
2021/07/16 01:43:24;;;;;;;13.53;5.00;;;19.00;99.90;;;;;;5052260;28;20589;-70
2021/07/16 01:45:51;;;;;;;7.80;5.00;;;19.00;99.90;;;;;;5063094;28;20565;-70
2021/07/16 01:48:18;;;;;;;4.70;3.23;;;19.00;99.90;;;;;;5060250;28;20477;-71
2021/07/16 01:50:46;;;;;;;7.70;5.50;;;18.90;99.90;;;;;;5052057;28;20525;-71
2021/07/16 01:53:15;;;;;;;6.23;5.63;;;18.80;99.90;;;;;;5056073;28;20462;-71
2021/07/16 01:55:42;;;;;;;6.67;4.60;;;18.80;99.90;;;;;;5056947;28;20454;-71
2021/07/16 01:58:13;;;;;;;9.80;4.47;;;18.90;99.90;;;;;;5054649;28;20445;-70
2021/07/16 02:00:42;;;;;;;20.93;4.80;;;19.00;99.90;;;;;;5051460;28;20474;-71
2021/07/16 02:03:11;;;;;;;7.23;6.13;;;19.10;99.90;;;;;;5056464;28;20510;-70
2021/07/16 02:05:39;;;;;;;8.50;6.57;;;19.10;99.90;;;;;;5060624;28;20450;-70
2021/07/16 02:08:08;;;;;;;6.47;4.33;;;19.10;99.90;;;;;;5057948;28;20499;-71
2021/07/16 02:10:37;;;;;;;8.73;5.63;;;19.20;99.90;;;;;;5060319;28;20442;-71
2021/07/16 02:13:04;;;;;;;11.13;4.77;;;19.10;99.90;;;;;;5056546;28;20458;-70
2021/07/16 02:15:35;;;;;;;9.00;4.80;;;19.20;99.90;;;;;;5055493;28;20612;-70
2021/07/16 02:18:02;;;;;;;10.97;5.07;;;19.30;99.90;;;;;;5063085;28;21030;-70
2021/07/16 02:20:31;;;;;;;4.23;3.20;;;19.20;99.90;;;;;;5055320;28;20510;-70
2021/07/16 02:23:00;;;;;;;9.70;4.20;;;19.10;99.90;;;;;;5058753;28;20467;-70
2021/07/16 02:25:29;;;;;;;5.80;3.90;;;19.10;99.90;;;;;;5057586;28;20544;-71
2021/07/16 02:27:58;;;;;;;10.60;3.53;;;19.00;99.90;;;;;;5061659;28;20454;-71
2021/07/16 02:30:26;;;;;;;8.00;4.33;;;19.00;99.90;;;;;;5059160;28;20557;-71
2021/07/16 02:32:55;;;;;;;12.30;4.33;;;19.00;99.90;;;;;;5054817;28;20553;-70
2021/07/16 02:35:22;;;;;;;16.83;3.93;;;18.90;99.90;;;;;;5058406;28;20472;-71
2021/07/16 02:37:49;;;;;;;9.37;4.60;;;18.90;99.90;;;;;;5067417;28;20466;-71
2021/07/16 02:40:18;;;;;;;8.97;4.43;;;18.90;99.90;;;;;;5058992;28;20492;-70
2021/07/16 02:42:45;;;;;;;8.70;4.60;;;19.00;99.90;;;;;;5050936;28;20956;-71
2021/07/16 02:45:15;;;;;;;5.47;4.70;;;19.10;99.90;;;;;;5056718;28;20999;-71
2021/07/16 02:47:42;;;;;;;13.23;5.00;;;19.10;99.90;;;;;;5057636;28;20554;-72
2021/07/16 02:50:13;;;;;;;6.60;5.27;;;19.10;99.90;;;;;;5055024;28;20882;-71
2021/07/16 02:52:40;;;;;;;6.53;4.90;;;19.00;99.90;;;;;;5051636;28;20481;-72
2021/07/16 02:55:07;;;;;;;8.40;4.50;;;19.10;99.90;;;;;;5050836;28;20826;-72
2021/07/16 02:57:35;;;;;;;5.10;4.33;;;19.10;99.90;;;;;;5052430;28;20552;-73
2021/07/16 03:00:02;;;;;;;11.30;6.27;;;19.10;99.90;;;;;;5051067;28;20489;-71
2021/07/16 03:02:29;;;;;;;14.03;5.07;;;19.20;99.90;;;;;;5053372;28;20488;-71
2021/07/16 03:04:56;;;;;;;12.03;6.40;;;19.10;99.90;;;;;;5050672;28;20466;-71
2021/07/16 03:07:25;;;;;;;19.03;5.40;;;19.00;99.90;;;;;;5053798;28;20664;-71
2021/07/16 03:09:52;;;;;;;8.07;4.20;;;19.10;99.90;;;;;;5054304;28;20529;-71
2021/07/16 03:12:19;;;;;;;9.90;5.63;;;19.00;99.90;;;;;;5050376;28;20472;-69
2021/07/16 03:14:45;;;;;;;6.60;5.20;;;19.00;99.90;;;;;;5052545;28;20458;-69
2021/07/16 03:17:12;;;;;;;12.93;5.47;;;19.00;99.90;;;;;;5057368;28;20563;-70
2021/07/16 03:19:39;;;;;;;8.30;5.33;;;19.00;99.90;;;;;;5057407;28;20478;-69
2021/07/16 03:22:06;;;;;;;16.57;4.80;;;18.90;99.90;;;;;;5058553;28;20463;-71
2021/07/16 03:24:35;;;;;;;9.03;5.63;;;19.00;99.90;;;;;;5054788;28;21289;-71
2021/07/16 03:27:02;;;;;;;11.30;6.50;;;19.10;99.90;;;;;;5052421;28;20486;-70
2021/07/16 03:29:29;;;;;;;9.83;5.90;;;19.00;99.90;;;;;;5047857;28;20823;-70
2021/07/16 03:31:56;;;;;;;13.20;5.77;;;19.10;99.90;;;;;;5052226;28;20554;-71
2021/07/16 03:34:23;;;;;;;6.60;5.10;;;19.20;99.90;;;;;;5052035;28;20482;-71
2021/07/16 03:36:50;;;;;;;7.70;5.00;;;19.20;99.90;;;;;;5056514;28;20463;-71
2021/07/16 03:39:17;;;;;;;10.83;5.63;;;19.10;99.90;;;;;;5052599;28;20582;-71
2021/07/16 03:41:45;;;;;;;13.57;5.90;;;19.00;99.90;;;;;;5059067;28;20842;-71
2021/07/16 03:44:12;;;;;;;8.93;5.43;;;19.00;99.90;;;;;;5070182;28;20489;-72
2021/07/16 03:46:39;;;;;;;13.67;5.83;;;19.00;99.90;;;;;;5077757;28;20462;-72
2021/07/16 03:49:07;;;;;;;6.80;5.10;;;18.90;99.90;;;;;;5079127;28;20486;-70
2021/07/16 03:51:34;;;;;;;16.60;6.90;;;19.00;99.90;;;;;;5078201;28;20459;-71
2021/07/16 03:54:00;;;;;;;8.70;5.37;;;19.00;99.90;;;;;;5065076;28;20536;-71
2021/07/16 03:56:27;;;;;;;9.77;5.57;;;18.90;99.90;;;;;;5060283;28;20482;-72
2021/07/16 03:58:56;;;;;;;7.83;5.00;;;18.90;99.90;;;;;;5074290;28;20454;-71
2021/07/16 04:01:23;;;;;;;9.73;5.80;;;18.90;99.90;;;;;;5083178;28;20494;-70
2021/07/16 04:03:49;;;;;;;8.90;5.90;;;18.70;99.90;;;;;;5074391;28;20486;-70
2021/07/16 04:06:16;;;;;;;11.63;4.77;;;18.70;99.90;;;;;;5075622;28;21014;-71
2021/07/16 04:08:44;;;;;;;10.30;4.87;;;18.50;99.90;;;;;;5068641;28;20458;-70
2021/07/16 04:11:11;;;;;;;14.40;5.40;;;18.60;99.90;;;;;;5062008;28;20443;-70
2021/07/16 04:13:38;;;;;;;8.10;5.50;;;18.60;99.90;;;;;;5059824;28;20545;-70
2021/07/16 04:16:06;;;;;;;6.17;4.33;;;18.70;99.90;;;;;;5062240;28;20597;-71
2021/07/16 04:18:33;;;;;;;8.87;6.40;;;18.60;99.90;;;;;;5060983;28;20452;-71
2021/07/16 04:21:00;;;;;;;14.30;5.47;;;18.60;99.90;;;;;;5063868;28;20482;-70
2021/07/16 04:23:27;;;;;;;12.63;5.97;;;18.70;99.90;;;;;;5057931;28;20490;-70
2021/07/16 04:25:54;;;;;;;7.33;4.30;;;18.70;99.90;;;;;;5060359;28;20538;-71
2021/07/16 04:28:21;;;;;;;11.87;6.03;;;18.70;99.90;;;;;;5052489;28;20496;-70
2021/07/16 04:30:48;;;;;;;8.30;5.53;;;18.60;99.90;;;;;;5061350;28;20539;-71
2021/07/16 04:33:17;;;;;;;18.17;6.37;;;18.50;99.90;;;;;;5059831;28;20887;-70
2021/07/16 04:35:44;;;;;;;8.40;4.23;;;18.40;99.90;;;;;;5057089;28;20466;-70
2021/07/16 04:38:11;;;;;;;9.37;6.50;;;18.30;99.90;;;;;;5058955;28;20494;-70
2021/07/16 04:40:38;;;;;;;12.43;6.30;;;18.30;99.90;;;;;;5060209;28;20487;-70
2021/07/16 04:43:05;;;;;;;8.80;6.07;;;18.30;99.90;;;;;;5056851;28;20469;-72
2021/07/16 04:45:37;;;;;;;11.80;6.70;;;18.40;99.90;;;;;;5054439;28;20459;-70
2021/07/16 04:48:05;;;;;;;9.37;5.37;;;18.40;99.90;;;;;;5052499;28;20448;-71
2021/07/16 04:50:34;;;;;;;14.20;7.70;;;18.30;99.90;;;;;;5050909;28;20454;-71
2021/07/16 04:53:01;;;;;;;15.53;6.70;;;18.30;99.90;;;;;;5057472;28;21244;-70
2021/07/16 04:55:28;;;;;;;11.93;6.60;;;18.30;99.90;;;;;;5059275;28;20494;-69
2021/07/16 04:57:55;;;;;;;10.63;7.07;;;18.20;99.90;;;;;;5054179;28;20551;-71
2021/07/16 05:00:23;;;;;;;10.33;5.27;;;18.20;99.90;;;;;;5055810;28;20487;-70
2021/07/16 05:02:50;;;;;;;9.83;6.30;;;18.30;99.90;;;;;;5064866;28;20490;-70
2021/07/16 05:05:17;;;;;;;8.93;5.33;;;18.40;99.90;;;;;;5063480;28;20660;-71
2021/07/16 05:07:45;;;;;;;14.83;5.93;;;18.30;99.90;;;;;;5064362;28;20510;-71
2021/07/16 05:10:13;;;;;;;13.37;6.10;;;18.30;99.90;;;;;;5061226;28;20534;-68
2021/07/16 05:12:41;;;;;;;7.77;5.40;;;18.20;99.90;;;;;;5064518;28;20458;-70
2021/07/16 05:15:09;;;;;;;16.70;5.67;;;18.30;99.90;;;;;;5068080;28;20458;-70
2021/07/16 05:17:37;;;;;;;10.07;5.33;;;18.40;99.90;;;;;;5061047;28;20586;-72
2021/07/16 05:20:05;;;;;;;8.93;6.13;;;18.50;99.90;;;;;;5067260;28;20729;-71
2021/07/16 05:22:32;;;;;;;11.00;4.20;;;18.60;99.90;;;;;;5064264;28;20545;-71
2021/07/16 05:25:00;;;;;;;9.50;5.87;;;18.60;99.90;;;;;;5056533;28;20477;-71
2021/07/16 05:27:27;;;;;;;16.93;5.80;;;18.60;99.90;;;;;;5057736;28;20559;-71
2021/07/16 05:29:54;;;;;;;5.57;5.03;;;18.60;99.90;;;;;;5070097;28;20467;-71
2021/07/16 05:32:21;;;;;;;14.43;5.40;;;18.60;99.90;;;;;;5068372;28;20486;-71
2021/07/16 05:34:48;;;;;;;10.80;4.80;;;18.70;99.90;;;;;;5068069;28;20478;-71
2021/07/16 05:37:15;;;;;;;12.40;6.83;;;18.70;99.90;;;;;;5067681;28;20501;-71
2021/07/16 05:39:42;;;;;;;6.90;5.07;;;18.60;99.90;;;;;;5068715;28;20529;-71
2021/07/16 05:42:10;;;;;;;13.43;6.70;;;18.70;99.90;;;;;;5070161;28;20565;-70
2021/07/16 05:44:37;;;;;;;7.90;5.13;;;18.80;99.90;;;;;;5069387;28;20560;-70
2021/07/16 05:47:05;;;;;;;7.90;4.50;;;18.60;99.90;;;;;;5065956;28;20573;-71
2021/07/16 05:49:32;;;;;;;13.27;9.67;;;18.60;99.90;;;;;;5067496;28;20454;-71
2021/07/16 05:51:59;;;;;;;15.57;6.53;;;18.60;99.90;;;;;;5063013;28;20454;-71
2021/07/16 05:54:26;;;;;;;12.53;4.70;;;18.60;99.90;;;;;;5067384;28;20478;-70
2021/07/16 05:56:53;;;;;;;10.03;4.47;;;18.60;99.90;;;;;;5057764;28;20911;-71
2021/07/16 05:59:21;;;;;;;10.13;5.13;;;18.70;99.90;;;;;;5057056;28;20450;-70
2021/07/16 06:01:48;;;;;;;14.70;5.27;;;18.70;99.90;;;;;;5072758;28;20497;-71
2021/07/16 06:04:15;;;;;;;10.97;5.80;;;18.80;99.90;;;;;;5061743;28;20557;-70
2021/07/16 06:06:42;;;;;;;7.17;5.17;;;18.90;99.90;;;;;;5071163;28;20489;-70
2021/07/16 06:09:09;;;;;;;20.50;5.77;;;18.90;99.90;;;;;;5065594;28;20520;-71
2021/07/16 06:11:36;;;;;;;13.03;6.00;;;19.00;99.90;;;;;;5068067;28;20538;-70
2021/07/16 06:14:04;;;;;;;14.47;6.93;;;19.20;99.90;;;;;;5072572;28;20490;-71
2021/07/16 06:16:32;;;;;;;7.53;5.27;;;19.00;99.90;;;;;;5062647;28;20500;-71
2021/07/16 06:18:59;;;;;;;6.53;4.20;;;19.10;99.90;;;;;;5063044;28;20450;-71
2021/07/16 06:21:26;;;;;;;8.50;4.90;;;19.10;99.90;;;;;;5058868;28;20573;-72
2021/07/16 06:23:53;;;;;;;9.67;5.03;;;19.00;99.90;;;;;;5064726;28;20489;-70
2021/07/16 06:26:20;;;;;;;13.87;5.77;;;18.90;99.90;;;;;;5057349;28;20549;-71
2021/07/16 06:28:47;;;;;;;6.67;5.10;;;18.90;99.90;;;;;;5059438;28;20544;-71
2021/07/16 06:31:14;;;;;;;12.83;5.10;;;18.80;99.90;;;;;;5062407;28;20964;-70
2021/07/16 06:33:43;;;;;;;5.83;4.47;;;18.80;99.90;;;;;;5067624;28;20858;-70
2021/07/16 06:36:10;;;;;;;10.07;5.47;;;18.70;99.90;;;;;;5071100;28;20493;-71
2021/07/16 06:38:37;;;;;;;11.57;5.30;;;18.80;99.90;;;;;;5071510;28;20525;-71
2021/07/16 06:41:04;;;;;;;6.30;5.00;;;18.80;99.90;;;;;;5067046;28;20510;-71
2021/07/16 06:43:31;;;;;;;11.70;4.70;;;18.80;99.90;;;;;;5069565;28;20466;-71
2021/07/16 06:45:58;;;;;;;6.70;5.23;;;19.00;99.90;;;;;;5062527;28;20488;-71
2021/07/16 06:48:25;;;;;;;18.50;5.37;;;19.00;99.90;;;;;;5062527;28;20478;-71
2021/07/16 06:50:53;;;;;;;6.43;4.20;;;19.10;99.90;;;;;;5064653;28;20450;-72
2021/07/16 06:53:20;;;;;;;9.33;5.07;;;19.10;99.90;;;;;;5057961;28;21037;-70
2021/07/16 06:55:47;;;;;;;12.10;5.17;;;19.10;99.90;;;;;;5069873;28;20447;-71
2021/07/16 06:58:14;;;;;;;10.87;5.77;;;19.00;99.90;;;;;;5065269;28;20483;-71
2021/07/16 07:00:41;;;;;;;7.93;4.80;;;18.90;99.90;;;;;;5066065;28;20568;-71
2021/07/16 07:03:08;;;;;;;16.13;5.10;;;18.80;99.90;;;;;;5063948;28;20455;-71
2021/07/16 07:05:35;;;;;;;6.80;4.60;;;19.00;99.90;;;;;;5063548;28;20531;-70
2021/07/16 07:08:04;;;;;;;10.17;5.00;;;19.00;99.90;;;;;;5059321;28;20530;-71
2021/07/16 07:10:31;;;;;;;8.80;5.60;;;19.00;99.90;;;;;;5070120;28;20483;-71
2021/07/16 07:12:58;;;;;;;12.17;5.30;;;19.20;99.90;;;;;;5064764;28;20617;-71
2021/07/16 07:15:25;;;;;;;8.57;4.60;;;19.00;99.90;;;;;;5070729;28;20581;-70
2021/07/16 07:17:52;;;;;;;10.63;5.20;;;19.00;99.90;;;;;;5069445;28;20467;-70
2021/07/16 07:20:19;;;;;;;9.30;7.50;;;19.10;99.90;;;;;;5067945;28;20482;-71
2021/07/16 07:22:46;;;;;;;12.40;6.87;;;19.20;99.90;;;;;;5061632;28;20572;-71
2021/07/16 07:25:14;;;;;;;8.67;6.10;;;19.30;99.90;;;;;;5061384;28;21593;-70
2021/07/16 07:27:42;;;;;;;8.43;5.03;;;19.10;99.90;;;;;;5068572;28;20467;-70
2021/07/16 07:30:09;;;;;;;7.20;4.73;;;19.20;99.90;;;;;;5069162;28;20505;-71
2021/07/16 07:32:36;;;;;;;11.33;5.13;;;19.20;99.90;;;;;;5069910;28;20487;-71
2021/07/16 07:35:05;;;;;;;10.90;6.23;;;19.10;99.90;;;;;;5066608;28;20478;-70
2021/07/16 07:37:32;;;;;;;8.83;5.20;;;18.90;99.90;;;;;;5069175;28;20508;-71
2021/07/16 07:39:59;;;;;;;9.60;5.60;;;18.90;99.90;;;;;;5071324;28;20550;-72
2021/07/16 07:42:28;;;;;;;11.33;5.30;;;18.90;99.90;;;;;;5070939;28;20541;-72
2021/07/16 07:44:55;;;;;;;9.73;5.37;;;18.90;99.90;;;;;;5071559;28;20461;-72
2021/07/16 07:47:22;;;;;;;18.70;5.97;;;18.80;99.90;;;;;;5071152;28;20561;-71
2021/07/16 07:49:50;;;;;;;9.60;5.17;;;18.80;99.90;;;;;;5066453;28;20526;-70
2021/07/16 07:52:18;;;;;;;16.17;4.43;;;19.00;99.90;;;;;;5062707;28;20486;-72
2021/07/16 07:54:46;;;;;;;15.63;6.93;;;19.00;99.90;;;;;;5064533;28;20519;-72
2021/07/16 07:57:13;;;;;;;10.43;4.97;;;19.20;99.90;;;;;;5066202;28;20490;-72
2021/07/16 07:59:43;;;;;;;11.23;4.60;;;19.30;99.90;;;;;;5068079;28;20538;-72
2021/07/16 08:02:10;;;;;;;13.70;6.83;;;19.30;99.90;;;;;;5067147;28;20474;-72
2021/07/16 08:04:38;;;;;;;14.17;4.53;;;19.50;99.90;;;;;;5068626;28;20882;-71
2021/07/16 08:07:06;;;;;;;13.50;6.30;;;19.60;99.90;;;;;;5062444;28;21146;-71
2021/07/16 08:09:33;;;;;;;6.03;4.43;;;19.70;99.90;;;;;;5069465;28;20443;-73
2021/07/16 08:12:01;;;;;;;13.80;5.77;;;19.70;99.90;;;;;;5068057;28;20454;-72
2021/07/16 08:14:28;;;;;;;5.03;4.10;;;19.70;99.90;;;;;;5070192;28;20872;-72
2021/07/16 08:16:57;;;;;;;13.23;4.70;;;19.80;99.90;;;;;;5075244;28;20797;-72
2021/07/16 08:19:24;;;;;;;3.70;3.30;;;19.90;99.90;;;;;;5067157;28;20478;-70
2021/07/16 08:21:53;;;;;;;7.90;3.90;;;19.90;99.90;;;;;;5062048;28;20569;-71
2021/07/16 08:24:22;;;;;;;6.93;3.90;;;19.90;99.90;;;;;;5065982;28;20889;-72
2021/07/16 08:26:48;;;;;;;5.10;4.50;;;19.90;99.90;;;;;;5067072;28;21242;-72
2021/07/16 08:29:16;;;;;;;5.13;3.80;;;19.80;99.90;;;;;;5068603;28;20486;-72
2021/07/16 08:31:45;;;;;;;8.23;3.90;;;19.90;99.90;;;;;;5067387;28;20530;-72
2021/07/16 08:34:15;;;;;;;5.50;4.10;;;19.90;99.90;;;;;;5066206;28;20985;-72
2021/07/16 08:36:42;;;;;;;5.90;3.70;;;20.00;99.90;;;;;;5066873;28;20506;-71
2021/07/16 08:39:09;;;;;;;16.63;4.57;;;19.90;99.90;;;;;;5068625;28;20497;-71
2021/07/16 08:41:37;;;;;;;8.63;5.17;;;19.80;99.90;;;;;;5065457;28;20514;-72
2021/07/16 08:44:04;;;;;;;12.57;4.90;;;19.90;99.90;;;;;;5064180;28;20493;-72
2021/07/16 08:46:31;;;;;;;12.00;4.53;;;20.00;99.90;;;;;;5066653;28;20477;-72
2021/07/16 08:48:59;;;;;;;9.03;5.00;;;20.10;99.90;;;;;;5055018;28;20516;-71
2021/07/16 08:51:28;;;;;;;8.17;3.90;;;20.20;99.90;;;;;;5071130;28;20439;-72
2021/07/16 08:53:56;;;;;;;12.30;4.57;;;20.10;99.90;;;;;;5063838;28;20548;-72
2021/07/16 08:56:25;;;;;;;9.57;3.70;;;20.10;99.90;;;;;;5067983;28;20929;-71
2021/07/16 08:58:53;;;;;;;6.30;3.90;;;20.20;99.90;;;;;;5068517;28;20450;-71
2021/07/16 09:01:20;;;;;;;7.63;4.60;;;20.40;99.90;;;;;;5065620;28;20569;-70
2021/07/16 09:03:58;;;;;;;10.13;6.20;;;20.50;99.90;;;;;;5067124;28;20971;-71
2021/07/16 09:06:44;;;;;;;13.33;5.17;;;20.70;99.90;;;;;;5065047;28;20466;-70
2021/07/16 09:09:12;;;;;;;11.20;3.50;;;20.80;99.90;;;;;;5061632;28;20525;-71
2021/07/16 09:11:40;;;;;;;5.60;3.63;;;20.60;99.90;;;;;;5066311;28;20466;-71
2021/07/16 09:14:07;;;;;;;16.90;4.93;;;20.40;99.90;;;;;;5070140;28;20486;-71
2021/07/16 09:16:35;;;;;;;14.33;5.83;;;20.50;99.90;;;;;;5067513;28;20509;-71
2021/07/16 09:19:02;;;;;;;9.13;4.07;;;20.50;99.90;;;;;;5068884;28;20533;-71
2021/07/16 09:21:29;;;;;;;7.40;4.30;;;20.60;99.90;;;;;;5064115;28;20482;-71
2021/07/16 09:24:04;;;;;;;10.43;5.60;;;20.50;99.90;;;;;;5064069;28;20527;-71
2021/07/16 09:26:35;;;;;;;12.17;4.20;;;20.60;99.90;;;;;;5068690;28;20466;-71
2021/07/16 09:29:04;;;;;;;11.40;4.60;;;20.50;99.90;;;;;;5058678;28;20577;-71
2021/07/16 09:31:38;;;;;;;12.97;4.30;;;20.50;99.90;;;;;;5059099;28;20450;-71
2021/07/16 09:34:08;;;;;;;11.00;5.07;;;20.40;99.90;;;;;;5060286;28;20538;-69
2021/07/16 09:36:38;;;;;;;16.50;3.40;;;20.40;99.90;;;;;;5066404;28;20573;-72
2021/07/16 09:39:09;;;;;;;10.07;3.60;;;20.30;99.90;;;;;;5062175;28;20446;-71
2021/07/16 09:41:48;;;;;;;7.40;3.80;;;20.20;99.90;;;;;;5076417;28;20553;-71
2021/07/16 09:44:15;;;;;;;17.60;6.10;;;20.50;99.90;;;;;;5060505;28;20446;-71
2021/07/16 09:47:08;;;;;;;8.00;4.40;;;20.70;99.90;;;;;;5061915;28;20542;-71
2021/07/16 09:49:35;;;;;;;6.20;3.40;;;20.70;99.90;;;;;;5063269;28;20442;-71
2021/07/16 09:52:08;;;;;;;8.87;4.83;;;20.70;99.90;;;;;;5065437;28;20606;-71
2021/07/16 09:54:37;;;;;;;10.73;4.50;;;20.90;99.90;;;;;;5067027;28;20549;-71
2021/07/16 09:57:04;;;;;;;8.13;4.30;;;21.20;99.90;;;;;;5059791;28;20467;-72
2021/07/16 09:59:31;;;;;;;8.87;3.80;;;20.90;99.90;;;;;;5064094;28;20505;-71
2021/07/16 10:01:59;;;;;;;9.57;4.63;;;20.90;99.90;;;;;;5060855;28;20578;-72
2021/07/16 10:04:32;;;;;;;13.67;5.17;;;21.00;99.90;;;;;;5066937;28;20916;-71
2021/07/16 10:07:00;;;;;;;9.43;4.50;;;21.30;99.90;;;;;;5063240;28;20475;-72
2021/07/16 10:09:26;;;;;;;10.10;4.73;;;21.30;99.90;;;;;;5063147;28;20547;-71
2021/07/16 10:11:57;;;;;;;11.67;5.00;;;21.30;99.90;;;;;;5067291;28;20533;-71
2021/07/16 10:14:24;;;;;;;8.70;5.33;;;21.70;99.90;;;;;;5068596;28;20456;-72
2021/07/16 10:16:53;;;;;;;8.97;4.17;;;21.70;99.90;;;;;;5073136;28;20470;-72
2021/07/16 10:19:21;;;;;;;20.10;5.87;;;21.70;99.90;;;;;;5064508;28;20508;-72
2021/07/16 10:21:49;;;;;;;5.93;4.57;;;21.50;99.90;;;;;;5065593;28;20537;-72
2021/07/16 10:24:21;;;;;;;12.10;5.70;;;21.70;99.90;;;;;;5069140;28;20446;-72
2021/07/16 10:26:51;;;;;;;11.53;6.27;;;21.70;99.90;;;;;;5069493;28;20851;-72
2021/07/16 10:29:37;;;;;;;14.30;4.77;;;21.40;99.90;;;;;;5070416;28;20451;-71
2021/07/16 10:32:04;;;;;;;11.40;5.50;;;21.40;99.90;;;;;;5072542;28;20576;-71
2021/07/16 10:34:34;;;;;;;6.10;3.97;;;21.30;99.90;;;;;;5080211;28;20490;-72
2021/07/16 10:37:03;;;;;;;6.93;4.97;;;21.70;99.90;;;;;;5070937;28;20641;-72
2021/07/16 10:39:45;;;;;;;11.63;5.17;;;22.00;99.90;;;;;;5071031;28;20463;-72
2021/07/16 10:42:46;;;;;;;11.40;5.03;;;22.10;99.90;;;;;;5075189;28;20467;-72
2021/07/16 10:45:14;;;;;;;8.77;3.77;;;22.20;99.90;;;;;;5073312;28;20541;-72
2021/07/16 10:47:47;;;;;;;5.47;4.47;;;21.90;99.90;;;;;;5073892;28;20470;-70
2021/07/16 10:50:15;;;;;;;14.53;4.60;;;21.90;99.90;;;;;;5075430;28;20537;-72
2021/07/16 10:52:48;;;;;;;9.17;4.63;;;22.00;99.90;;;;;;5068827;28;20458;-72
2021/07/16 10:55:17;;;;;;;8.03;4.63;;;21.80;99.90;;;;;;5081427;28;20454;-71
2021/07/16 10:57:46;;;;;;;10.17;5.13;;;22.00;99.90;;;;;;5076122;28;20482;-71
2021/07/16 11:00:52;;;;;;;9.73;4.73;;;22.10;99.90;;;;;;5082191;28;20479;-72
2021/07/16 11:03:19;;;;;;;6.70;4.07;;;21.90;99.90;;;;;;5075481;28;20482;-72
2021/07/16 11:05:51;;;;;;;11.60;4.30;;;21.70;99.90;;;;;;5069566;28;20530;-72
2021/07/16 11:09:03;;;;;;;5.20;4.60;;;21.40;99.90;;;;;;5065005;28;20474;-71
2021/07/16 11:11:40;;;;;;;16.47;5.90;;;21.40;99.90;;;;;;5017494;28;20537;-73
2021/07/16 11:14:21;;;;;;;17.93;4.90;;;21.70;99.90;;;;;;5068621;28;20466;-72
2021/07/16 11:16:50;;;;;;;14.70;5.70;;;21.70;99.90;;;;;;5069539;28;20477;-71
2021/07/16 11:19:24;;;;;;;7.17;4.80;;;22.00;99.90;;;;;;5068446;28;20465;-72
2021/07/16 11:22:02;;;;;;;8.83;3.83;;;22.80;99.90;;;;;;5062953;28;20523;-72
2021/07/16 11:24:34;;;;;;;11.00;5.50;;;23.20;99.90;;;;;;5071862;28;20951;-72
2021/07/16 11:27:04;;;;;;;9.20;4.50;;;22.90;99.90;;;;;;5070210;28;20467;-72
2021/07/16 11:29:34;;;;;;;7.97;4.40;;;22.60;99.90;;;;;;5065219;28;20450;-71
2021/07/16 11:32:12;;;;;;;8.93;4.53;;;22.50;99.90;;;;;;5060978;28;20832;-72
2021/07/16 11:34:46;;;;;;;13.30;4.97;;;22.50;99.90;;;;;;5065355;28;20454;-71
2021/07/16 11:37:23;;;;;;;5.37;4.20;;;22.10;99.90;;;;;;5070026;28;20480;-71
2021/07/16 11:39:53;;;;;;;5.90;4.00;;;21.80;99.90;;;;;;5066400;28;20474;-71
2021/07/16 11:42:20;;;;;;;11.70;4.90;;;21.60;99.90;;;;;;5069879;28;20466;-72
2021/07/16 11:44:48;;;;;;;14.10;4.50;;;21.30;99.90;;;;;;5066578;28;21001;-72
2021/07/16 11:47:18;;;;;;;5.57;3.83;;;21.50;99.90;;;;;;5068907;28;20470;-70
2021/07/16 11:49:46;;;;;;;11.63;5.27;;;21.70;99.90;;;;;;5066578;28;20534;-71
2021/07/16 11:52:17;;;;;;;16.63;4.43;;;21.60;99.90;;;;;;5071497;28;20459;-71
2021/07/16 11:54:44;;;;;;;26.77;6.50;;;21.60;99.90;;;;;;5068622;28;20478;-70
2021/07/16 11:57:14;;;;;;;19.27;5.13;;;21.80;99.90;;;;;;5067929;28;20523;-71
2021/07/16 11:59:47;;;;;;;9.63;5.70;;;22.10;99.90;;;;;;5064884;28;21019;-70
2021/07/16 12:02:17;;;;;;;13.83;4.40;;;22.00;99.90;;;;;;5070031;28;20507;-71
2021/07/16 12:04:46;;;;;;;7.70;4.07;;;21.90;99.90;;;;;;5069712;28;20947;-70
2021/07/16 12:07:14;;;;;;;13.93;5.03;;;21.70;99.90;;;;;;5069327;28;20508;-71
2021/07/16 12:09:44;;;;;;;9.17;4.90;;;21.60;99.90;;;;;;5066392;28;20758;-71
2021/07/16 12:12:13;;;;;;;7.40;4.13;;;21.50;99.90;;;;;;5067810;28;20519;-71
2021/07/16 12:14:51;;;;;;;11.43;6.40;;;21.50;99.90;;;;;;5066740;28;20619;-70
2021/07/16 12:17:24;;;;;;;10.07;4.30;;;21.50;99.90;;;;;;5063405;28;20558;-70
2021/07/16 12:19:52;;;;;;;12.00;5.10;;;21.60;99.90;;;;;;5068196;28;20842;-71
2021/07/16 12:22:21;;;;;;;13.70;5.27;;;21.80;99.90;;;;;;5060568;28;20950;-69
2021/07/16 12:24:49;;;;;;;14.20;5.07;;;21.90;99.90;;;;;;5067850;28;20483;-72
2021/07/16 12:27:17;;;;;;;10.73;4.87;;;22.00;99.90;;;;;;5069629;28;20498;-71
2021/07/16 12:29:44;;;;;;;12.90;4.10;;;21.80;99.90;;;;;;5063048;28;20538;-70
2021/07/16 12:32:12;;;;;;;8.87;4.07;;;21.70;99.90;;;;;;5066334;28;20568;-70
2021/07/16 12:34:46;;;;;;;11.87;4.30;;;21.70;99.90;;;;;;5067612;28;20890;-71
2021/07/16 12:37:15;;;;;;;5.10;3.57;;;22.00;99.90;;;;;;5067550;28;20481;-71
2021/07/16 12:39:45;;;;;;;6.37;3.67;;;22.40;99.90;;;;;;5066260;28;20523;-71
2021/07/16 12:42:14;;;;;;;7.83;3.50;;;22.80;99.90;;;;;;5067661;28;20495;-71
2021/07/16 12:45:01;;;;;;;4.53;3.37;;;23.30;99.90;;;;;;5066895;28;20511;-70
2021/07/16 12:47:28;;;;;;;9.10;3.87;;;23.30;99.90;;;;;;5067840;28;20471;-71
2021/07/16 12:50:07;;;;;;;11.60;4.67;;;23.00;99.90;;;;;;5073398;28;20455;-71